sensor_id;sensor_type;location;lat;lon;timestamp;pressure;altitude;pressure_sealevel;temperature;humidity
2036;BME280;23642;42.658;23.350;2023-04-27T00:02:05;55139.94;;;-146.31;55.03
2036;BME280;23642;42.658;23.350;2023-04-27T00:04:32;55146.13;;;-146.31;55.11
2036;BME280;23642;42.658;23.350;2023-04-27T00:07:02;55133.75;;;-146.31;55.26
2036;BME280;23642;42.658;23.350;2023-04-27T00:09:29;55142.00;;;-146.31;55.29
2036;BME280;23642;42.658;23.350;2023-04-27T00:11:57;55146.13;;;-146.31;55.31
2036;BME280;23642;42.658;23.350;2023-04-27T00:14:24;55146.13;;;-146.31;55.69
2036;BME280;23642;42.658;23.350;2023-04-27T00:16:52;55142.00;;;-146.31;55.30
2036;BME280;23642;42.658;23.350;2023-04-27T00:19:19;55152.34;;;-146.31;55.16
2036;BME280;23642;42.658;23.350;2023-04-27T00:21:47;55160.59;;;-146.31;55.43
2036;BME280;23642;42.658;23.350;2023-04-27T00:24:13;55173.00;;;-146.31;55.60
2036;BME280;23642;42.658;23.350;2023-04-27T00:26:40;55187.44;;;-146.31;55.58
2036;BME280;23642;42.658;23.350;2023-04-27T00:29:09;55175.06;;;-146.31;55.53
2036;BME280;23642;42.658;23.350;2023-04-27T00:31:35;55183.31;;;-146.31;56.18
2036;BME280;23642;42.658;23.350;2023-04-27T00:34:02;55162.66;;;-146.31;55.88
2036;BME280;23642;42.658;23.350;2023-04-27T00:36:29;55183.31;;;-146.31;55.88
2036;BME280;23642;42.658;23.350;2023-04-27T00:38:58;55179.19;;;-146.31;56.37
2036;BME280;23642;42.658;23.350;2023-04-27T00:41:27;55212.22;;;-146.31;56.57
2036;BME280;23642;42.658;23.350;2023-04-27T00:43:53;55185.38;;;-146.31;56.88
2036;BME280;23642;42.658;23.350;2023-04-27T00:46:22;55203.97;;;-146.31;56.97
2036;BME280;23642;42.658;23.350;2023-04-27T00:48:52;55203.97;;;-146.31;56.58
2036;BME280;23642;42.658;23.350;2023-04-27T00:51:19;55201.91;;;-146.31;57.23
2036;BME280;23642;42.658;23.350;2023-04-27T00:53:46;55208.09;;;-146.31;57.27
2036;BME280;23642;42.658;23.350;2023-04-27T00:56:14;55216.34;;;-146.31;57.04
2036;BME280;23642;42.658;23.350;2023-04-27T00:58:41;55212.22;;;-146.31;57.44
2036;BME280;23642;42.658;23.350;2023-04-27T01:01:09;55210.16;;;-146.31;57.35
2036;BME280;23642;42.658;23.350;2023-04-27T01:03:38;55222.56;;;-146.31;57.71
2036;BME280;23642;42.658;23.350;2023-04-27T01:06:06;55230.81;;;-146.31;57.68
2036;BME280;23642;42.658;23.350;2023-04-27T01:08:33;55212.22;;;-146.31;57.79
2036;BME280;23642;42.658;23.350;2023-04-27T01:11:00;55220.50;;;-146.31;58.06
2036;BME280;23642;42.658;23.350;2023-04-27T01:13:27;55224.63;;;-146.31;58.13
2036;BME280;23642;42.658;23.350;2023-04-27T01:15:54;55208.09;;;-146.31;58.11
2036;BME280;23642;42.658;23.350;2023-04-27T01:18:21;55228.75;;;-146.31;57.88
2036;BME280;23642;42.658;23.350;2023-04-27T01:20:49;55210.16;;;-146.31;58.06
2036;BME280;23642;42.658;23.350;2023-04-27T01:23:17;55212.22;;;-146.31;58.18
2036;BME280;23642;42.658;23.350;2023-04-27T01:25:44;55228.75;;;-146.31;58.68
2036;BME280;23642;42.658;23.350;2023-04-27T01:28:11;55226.69;;;-146.31;58.38
2036;BME280;23642;42.658;23.350;2023-04-27T01:30:38;55222.56;;;-146.31;58.61
2036;BME280;23642;42.658;23.350;2023-04-27T01:33:04;55216.34;;;-146.31;58.75
2036;BME280;23642;42.658;23.350;2023-04-27T01:35:31;55222.56;;;-146.31;58.96
2036;BME280;23642;42.658;23.350;2023-04-27T01:37:58;55241.16;;;-146.31;58.39
2036;BME280;23642;42.658;23.350;2023-04-27T01:40:27;55257.66;;;-146.31;58.31
2036;BME280;23642;42.658;23.350;2023-04-27T01:42:53;55241.16;;;-146.31;58.09
2036;BME280;23642;42.658;23.350;2023-04-27T01:45:20;55245.28;;;-146.31;58.09
2036;BME280;23642;42.658;23.350;2023-04-27T01:47:49;55241.16;;;-146.31;58.00
2036;BME280;23642;42.658;23.350;2023-04-27T01:50:16;55245.28;;;-146.31;57.84
2036;BME280;23642;42.658;23.350;2023-04-27T01:52:46;55261.78;;;-146.31;57.98
2036;BME280;23642;42.658;23.350;2023-04-27T01:55:13;55237.00;;;-146.31;58.08
2036;BME280;23642;42.658;23.350;2023-04-27T01:57:41;55278.31;;;-146.31;58.01
2036;BME280;23642;42.658;23.350;2023-04-27T02:00:09;55255.59;;;-146.31;58.41
2036;BME280;23642;42.658;23.350;2023-04-27T02:02:36;55261.78;;;-146.31;57.98
2036;BME280;23642;42.658;23.350;2023-04-27T02:05:04;55253.53;;;-146.31;57.87
2036;BME280;23642;42.658;23.350;2023-04-27T02:07:31;55292.78;;;-146.31;57.96
2036;BME280;23642;42.658;23.350;2023-04-27T02:09:58;55259.72;;;-146.31;57.89
2036;BME280;23642;42.658;23.350;2023-04-27T02:12:24;55261.78;;;-146.31;58.26
2036;BME280;23642;42.658;23.350;2023-04-27T02:14:52;55298.97;;;-146.31;58.14
2036;BME280;23642;42.658;23.350;2023-04-27T02:17:19;55261.78;;;-146.31;57.84
2036;BME280;23642;42.658;23.350;2023-04-27T02:19:46;55270.06;;;-146.31;57.98
2036;BME280;23642;42.658;23.350;2023-04-27T02:22:13;55261.78;;;-146.31;58.18
2036;BME280;23642;42.658;23.350;2023-04-27T02:24:40;55270.06;;;-146.31;58.48
2036;BME280;23642;42.658;23.350;2023-04-27T02:27:07;55257.66;;;-146.31;58.11
2036;BME280;23642;42.658;23.350;2023-04-27T02:29:34;55253.53;;;-146.31;58.10
2036;BME280;23642;42.658;23.350;2023-04-27T02:32:12;55286.59;;;-146.31;57.53
2036;BME280;23642;42.658;23.350;2023-04-27T02:34:48;55315.50;;;-146.31;57.81
2036;BME280;23642;42.658;23.350;2023-04-27T02:37:15;55286.59;;;-146.31;57.58
2036;BME280;23642;42.658;23.350;2023-04-27T02:39:42;55292.78;;;-146.31;nan
2036;BME280;23642;42.658;23.350;2023-04-27T02:42:09;55286.59;;;-146.31;57.73
2036;BME280;23642;42.658;23.350;2023-04-27T02:44:36;55288.66;;;-146.31;57.53
2036;BME280;23642;42.658;23.350;2023-04-27T02:47:03;55284.50;;;-146.31;57.98
2036;BME280;23642;42.658;23.350;2023-04-27T02:49:31;55303.09;;;-146.31;57.86
2036;BME280;23642;42.658;23.350;2023-04-27T02:52:01;55309.31;;;-146.31;58.23
2036;BME280;23642;42.658;23.350;2023-04-27T02:54:28;55286.59;;;-146.31;58.51
2036;BME280;23642;42.658;23.350;2023-04-27T02:56:55;55311.38;;;-146.31;57.31
2036;BME280;23642;42.658;23.350;2023-04-27T02:59:24;55303.09;;;-146.31;57.31
2036;BME280;23642;42.658;23.350;2023-04-27T03:01:51;55301.03;;;-146.31;57.31
2036;BME280;23642;42.658;23.350;2023-04-27T03:04:18;55336.16;;;-146.31;57.31
2036;BME280;23642;42.658;23.350;2023-04-27T03:06:46;55286.59;;;-146.31;57.06
2036;BME280;23642;42.658;23.350;2023-04-27T03:09:13;55296.91;;;-146.31;56.97
2036;BME280;23642;42.658;23.350;2023-04-27T03:11:41;55325.81;;;-146.31;57.05
2036;BME280;23642;42.658;23.350;2023-04-27T03:14:08;55307.22;;;-146.31;57.29
2036;BME280;23642;42.658;23.350;2023-04-27T03:16:37;55319.63;;;-146.31;57.71
2036;BME280;23642;42.658;23.350;2023-04-27T03:19:04;55311.38;;;-146.31;57.08
2036;BME280;23642;42.658;23.350;2023-04-27T03:21:31;55315.50;;;-146.31;56.90
2036;BME280;23642;42.658;23.350;2023-04-27T03:24:00;55301.03;;;-146.31;57.10
2036;BME280;23642;42.658;23.350;2023-04-27T03:26:26;55313.44;;;-146.31;56.66
2036;BME280;23642;42.658;23.350;2023-04-27T03:28:53;55323.75;;;-146.31;57.07
2036;BME280;23642;42.658;23.350;2023-04-27T03:31:20;55315.50;;;-146.31;57.16
2036;BME280;23642;42.658;23.350;2023-04-27T03:33:47;55309.31;;;-146.31;57.80
2036;BME280;23642;42.658;23.350;2023-04-27T03:36:13;55348.53;;;-146.31;57.26
2036;BME280;23642;42.658;23.350;2023-04-27T03:38:40;55315.50;;;-146.31;56.73
2036;BME280;23642;42.658;23.350;2023-04-27T03:41:08;55311.38;;;-146.31;57.32
2036;BME280;23642;42.658;23.350;2023-04-27T03:43:36;55311.38;;;-146.31;57.66
2036;BME280;23642;42.658;23.350;2023-04-27T03:46:02;55317.56;;;-146.31;57.92
2036;BME280;23642;42.658;23.350;2023-04-27T03:48:29;55344.41;;;-146.31;57.78
2036;BME280;23642;42.658;23.350;2023-04-27T03:50:56;55319.63;;;-146.31;57.48
2036;BME280;23642;42.658;23.350;2023-04-27T03:53:23;55336.16;;;-146.31;56.99
2036;BME280;23642;42.658;23.350;2023-04-27T03:55:50;55311.38;;;-146.31;56.88
2036;BME280;23642;42.658;23.350;2023-04-27T03:58:18;55346.47;;;-146.31;56.81
2036;BME280;23642;42.658;23.350;2023-04-27T04:00:45;55313.44;;;-146.31;56.75
2036;BME280;23642;42.658;23.350;2023-04-27T04:03:12;55327.88;;;-146.31;56.31
2036;BME280;23642;42.658;23.350;2023-04-27T04:05:39;55352.66;;;-146.31;56.42
2036;BME280;23642;42.658;23.350;2023-04-27T04:08:05;55332.03;;;-146.31;55.96
2036;BME280;23642;42.658;23.350;2023-04-27T04:10:32;55369.19;;;-146.31;55.88
2036;BME280;23642;42.658;23.350;2023-04-27T04:13:02;55338.22;;;-146.31;56.08
2036;BME280;23642;42.658;23.350;2023-04-27T04:15:31;55346.47;;;-146.31;55.81
2036;BME280;23642;42.658;23.350;2023-04-27T04:17:57;55360.94;;;-146.31;55.69
2036;BME280;23642;42.658;23.350;2023-04-27T04:20:24;55332.03;;;-146.31;55.76
2036;BME280;23642;42.658;23.350;2023-04-27T04:22:53;55340.28;;;-146.31;55.57
2036;BME280;23642;42.658;23.350;2023-04-27T04:25:20;55350.59;;;-146.31;55.85
2036;BME280;23642;42.658;23.350;2023-04-27T04:27:47;55342.34;;;-146.31;55.73
2036;BME280;23642;42.658;23.350;2023-04-27T04:30:14;55360.94;;;-146.31;55.53
2036;BME280;23642;42.658;23.350;2023-04-27T04:32:43;55340.28;;;-146.31;55.32
2036;BME280;23642;42.658;23.350;2023-04-27T04:35:24;55342.34;;;-146.31;54.83
2036;BME280;23642;42.658;23.350;2023-04-27T04:37:53;55365.06;;;-146.31;54.65
2036;BME280;23642;42.658;23.350;2023-04-27T04:40:25;55354.75;;;-146.31;54.97
2036;BME280;23642;42.658;23.350;2023-04-27T04:42:52;55350.59;;;-146.31;54.65
2036;BME280;23642;42.658;23.350;2023-04-27T04:45:19;55350.59;;;-146.31;55.09
2036;BME280;23642;42.658;23.350;2023-04-27T04:47:47;55327.88;;;-146.31;55.32
2036;BME280;23642;42.658;23.350;2023-04-27T04:50:16;55338.22;;;-146.31;55.04
2036;BME280;23642;42.658;23.350;2023-04-27T04:52:43;55317.56;;;-146.31;55.17
2036;BME280;23642;42.658;23.350;2023-04-27T04:55:09;55311.38;;;-146.31;54.75
2036;BME280;23642;42.658;23.350;2023-04-27T04:57:39;55307.22;;;-146.31;54.20
2036;BME280;23642;42.658;23.350;2023-04-27T05:00:07;55313.44;;;-146.31;54.91
2036;BME280;23642;42.658;23.350;2023-04-27T05:02:38;55344.41;;;-146.31;53.78
2036;BME280;23642;42.658;23.350;2023-04-27T05:05:09;55336.16;;;-146.31;53.81
2036;BME280;23642;42.658;23.350;2023-04-27T05:07:36;55294.84;;;-146.31;53.08
2036;BME280;23642;42.658;23.350;2023-04-27T05:10:03;55317.56;;;-146.31;52.29
2036;BME280;23642;42.658;23.350;2023-04-27T05:12:30;55309.31;;;-146.31;52.22
2036;BME280;23642;42.658;23.350;2023-04-27T05:14:59;55265.94;;;-146.31;50.86
2036;BME280;23642;42.658;23.350;2023-04-27T05:17:33;55257.66;;;-146.31;50.76
2036;BME280;23642;42.658;23.350;2023-04-27T05:20:00;55317.56;;;-146.31;51.66
2036;BME280;23642;42.658;23.350;2023-04-27T05:22:30;55338.22;;;-146.31;52.21
2036;BME280;23642;42.658;23.350;2023-04-27T05:24:57;55286.59;;;-146.31;51.96
2036;BME280;23642;42.658;23.350;2023-04-27T05:27:24;55294.84;;;-146.31;51.66
2036;BME280;23642;42.658;23.350;2023-04-27T05:29:54;55325.81;;;-146.31;51.83
2036;BME280;23642;42.658;23.350;2023-04-27T05:32:22;55350.59;;;-146.31;52.56
2036;BME280;23642;42.658;23.350;2023-04-27T05:34:51;55325.81;;;-146.31;52.33
2036;BME280;23642;42.658;23.350;2023-04-27T05:37:17;55315.50;;;-146.31;52.23
2036;BME280;23642;42.658;23.350;2023-04-27T05:39:46;55315.50;;;-146.31;52.50
2036;BME280;23642;42.658;23.350;2023-04-27T05:42:12;55315.50;;;-146.31;52.68
2036;BME280;23642;42.658;23.350;2023-04-27T05:44:42;55311.38;;;-146.31;52.49
2036;BME280;23642;42.658;23.350;2023-04-27T05:47:11;55342.34;;;-146.31;52.43
2036;BME280;23642;42.658;23.350;2023-04-27T05:49:38;55288.66;;;-146.31;51.68
2036;BME280;23642;42.658;23.350;2023-04-27T05:52:05;55373.31;;;-146.31;52.56
2036;BME280;23642;42.658;23.350;2023-04-27T05:54:34;55301.03;;;-146.31;52.41
2036;BME280;23642;42.658;23.350;2023-04-27T05:59:58;55340.28;;;-146.31;52.82
2036;BME280;23642;42.658;23.350;2023-04-27T06:02:37;55346.47;;;-146.31;52.59
2036;BME280;23642;42.658;23.350;2023-04-27T06:05:15;55348.53;;;-146.31;52.76
2036;BME280;23642;42.658;23.350;2023-04-27T06:07:58;55352.66;;;-146.31;52.93
2036;BME280;23642;42.658;23.350;2023-04-27T06:10:25;55348.53;;;-146.31;52.83
2036;BME280;23642;42.658;23.350;2023-04-27T06:13:03;55348.53;;;-146.31;52.61
2036;BME280;23642;42.658;23.350;2023-04-27T06:15:58;55311.38;;;-146.31;52.61
2036;BME280;23642;42.658;23.350;2023-04-27T06:18:28;55303.09;;;-146.31;51.91
2036;BME280;23642;42.658;23.350;2023-04-27T06:20:59;55265.94;;;-146.31;51.62
2036;BME280;23642;42.658;23.350;2023-04-27T06:23:33;55286.59;;;-146.31;51.12
2036;BME280;23642;42.658;23.350;2023-04-27T06:26:21;55294.84;;;-146.31;50.90
2036;BME280;23642;42.658;23.350;2023-04-27T06:28:55;55296.91;;;-146.31;51.33
2036;BME280;23642;42.658;23.350;2023-04-27T06:31:43;55261.78;;;-146.31;50.66
2036;BME280;23642;42.658;23.350;2023-04-27T06:38:16;55241.16;;;-146.31;50.26
2036;BME280;23642;42.658;23.350;2023-04-27T06:49:51;55280.38;;;-146.31;51.54
2036;BME280;23642;42.658;23.350;2023-04-27T06:50:36;55294.84;;;-146.31;50.94
2036;BME280;23642;42.658;23.350;2023-04-27T06:53:02;55274.19;;;-146.31;50.53
2036;BME280;23642;42.658;23.350;2023-04-27T06:55:45;55276.25;;;-146.31;50.62
2036;BME280;23642;42.658;23.350;2023-04-27T06:58:23;55270.06;;;-146.31;50.26
2036;BME280;23642;42.658;23.350;2023-04-27T07:04:41;55255.59;;;-146.31;49.35
2036;BME280;23642;42.658;23.350;2023-04-27T07:07:18;55251.47;;;-146.31;48.81
2036;BME280;23642;42.658;23.350;2023-04-27T07:10:49;55173.00;;;-146.31;48.13
2036;BME280;23642;42.658;23.350;2023-04-27T07:13:40;55191.56;;;-146.31;47.32
2036;BME280;23642;42.658;23.350;2023-04-27T07:26:43;55263.88;;;-146.31;47.03
2036;BME280;23642;42.658;23.350;2023-04-27T07:33:11;55307.22;;;-146.31;46.75
2036;BME280;23642;42.658;23.350;2023-04-27T07:36:22;55323.75;;;-146.31;46.73
2036;BME280;23642;42.658;23.350;2023-04-27T07:39:20;55265.94;;;-146.31;46.15
2036;BME280;23642;42.658;23.350;2023-04-27T07:41:54;55249.41;;;-146.31;45.68
2036;BME280;23642;42.658;23.350;2023-04-27T07:44:39;55288.66;;;-146.31;45.22
2036;BME280;23642;42.658;23.350;2023-04-27T07:47:29;55296.91;;;-146.31;45.66
2036;BME280;23642;42.658;23.350;2023-04-27T07:50:25;55253.53;;;-146.31;45.90
2036;BME280;23642;42.658;23.350;2023-04-27T07:53:09;55311.38;;;-146.31;45.91
2036;BME280;23642;42.658;23.350;2023-04-27T07:55:38;55288.66;;;-146.31;45.71
2036;BME280;23642;42.658;23.350;2023-04-27T07:58:22;55311.38;;;-146.31;45.63
2036;BME280;23642;42.658;23.350;2023-04-27T08:01:11;55332.03;;;-146.31;45.57
2036;BME280;23642;42.658;23.350;2023-04-27T08:03:41;55319.63;;;-146.31;45.44
2036;BME280;23642;42.658;23.350;2023-04-27T08:06:37;55354.75;;;-146.31;45.06
2036;BME280;23642;42.658;23.350;2023-04-27T08:10:35;55303.09;;;-146.31;45.36
2036;BME280;23642;42.658;23.350;2023-04-27T08:12:04;55270.06;;;-146.31;44.44
2036;BME280;23642;42.658;23.350;2023-04-27T08:17:19;55286.59;;;-146.31;44.91
2036;BME280;23642;42.658;23.350;2023-04-27T08:20:12;55298.97;;;-146.31;45.19
2036;BME280;23642;42.658;23.350;2023-04-27T08:22:58;55245.28;;;-146.31;46.30
2036;BME280;23642;42.658;23.350;2023-04-27T08:25:28;55270.06;;;-146.31;45.16
2036;BME280;23642;42.658;23.350;2023-04-27T08:28:18;55296.91;;;-146.31;44.44
2036;BME280;23642;42.658;23.350;2023-04-27T08:31:27;55329.94;;;-146.31;45.06
2036;BME280;23642;42.658;23.350;2023-04-27T08:34:12;55307.22;;;-146.31;45.83
2036;BME280;23642;42.658;23.350;2023-04-27T08:36:59;55311.38;;;-146.31;46.14
2036;BME280;23642;42.658;23.350;2023-04-27T08:39:48;55315.50;;;-146.31;45.69
2036;BME280;23642;42.658;23.350;2023-04-27T08:42:19;55296.91;;;-146.31;44.57
2036;BME280;23642;42.658;23.350;2023-04-27T08:51:27;55369.19;;;-146.31;42.30
2036;BME280;23642;42.658;23.350;2023-04-27T08:54:16;55451.81;;;-146.31;42.06
2036;BME280;23642;42.658;23.350;2023-04-27T08:56:50;55418.78;;;-146.31;41.84
2036;BME280;23642;42.658;23.350;2023-04-27T09:03:03;55507.59;;;-146.31;42.77
2036;BME280;23642;42.658;23.350;2023-04-27T09:09:04;55462.13;;;-146.31;42.01
2036;BME280;23642;42.658;23.350;2023-04-27T09:15:48;55424.97;;;-146.31;41.87
2036;BME280;23642;42.658;23.350;2023-04-27T09:19:00;55493.13;;;-146.31;41.16
2036;BME280;23642;42.658;23.350;2023-04-27T09:21:46;55406.38;;;-146.31;40.53
2036;BME280;23642;42.658;23.350;2023-04-27T09:24:28;55484.88;;;-146.31;41.08
2036;BME280;23642;42.658;23.350;2023-04-27T09:27:19;55478.66;;;-146.31;41.42
2036;BME280;23642;42.658;23.350;2023-04-27T09:30:12;55517.91;;;-146.31;40.84
2036;BME280;23642;42.658;23.350;2023-04-27T09:32:55;55524.09;;;-146.31;41.74
2036;BME280;23642;42.658;23.350;2023-04-27T09:42:56;55451.81;;;-146.31;40.33
2036;BME280;23642;42.658;23.350;2023-04-27T09:46:28;55534.44;;;-146.31;40.49
2036;BME280;23642;42.658;23.350;2023-04-27T09:52:35;55501.38;;;-146.31;39.52
2036;BME280;23642;42.658;23.350;2023-04-27T10:12:32;55509.66;;;-146.31;37.82
2036;BME280;23642;42.658;23.350;2023-04-27T10:15:16;55472.47;;;-146.31;37.12
2036;BME280;23642;42.658;23.350;2023-04-27T10:18:32;55472.47;;;-146.31;37.09
2036;BME280;23642;42.658;23.350;2023-04-27T10:24:30;55538.56;;;-146.31;38.40
2036;BME280;23642;42.658;23.350;2023-04-27T10:30:51;55600.53;;;-146.31;38.29
2036;BME280;23642;42.658;23.350;2023-04-27T10:37:06;55635.66;;;-146.31;37.29
2036;BME280;23642;42.658;23.350;2023-04-27T10:40:31;55559.22;;;-146.31;36.64
2036;BME280;23642;42.658;23.350;2023-04-27T10:42:52;55594.34;;;-146.31;36.22
2036;BME280;23642;42.658;23.350;2023-04-27T10:45:35;55579.88;;;-146.31;36.11
2036;BME280;23642;42.658;23.350;2023-04-27T10:48:03;55629.44;;;-146.31;36.79
2036;BME280;23642;42.658;23.350;2023-04-27T10:50:44;55596.41;;;-146.31;36.98
2036;BME280;23642;42.658;23.350;2023-04-27T10:53:57;55581.94;;;-146.31;36.99
2036;BME280;23642;42.658;23.350;2023-04-27T10:57:14;55590.19;;;-146.31;37.49
2036;BME280;23642;42.658;23.350;2023-04-27T11:03:21;55598.47;;;-146.31;35.52
2036;BME280;23642;42.658;23.350;2023-04-27T11:10:09;55546.81;;;-146.31;34.94
2036;BME280;23642;42.658;23.350;2023-04-27T11:12:43;55641.84;;;-146.31;35.73
2036;BME280;23642;42.658;23.350;2023-04-27T11:16:05;55681.09;;;-146.31;35.64
2036;BME280;23642;42.658;23.350;2023-04-27T11:19:10;55645.97;;;-146.31;35.38
2036;BME280;23642;42.658;23.350;2023-04-27T11:21:47;55664.56;;;-146.31;35.34
2036;BME280;23642;42.658;23.350;2023-04-27T11:28:31;55683.16;;;-146.31;36.77
2036;BME280;23642;42.658;23.350;2023-04-27T11:31:09;55625.31;;;-146.31;36.28
2036;BME280;23642;42.658;23.350;2023-04-27T11:33:55;55579.88;;;-146.31;35.89
2036;BME280;23642;42.658;23.350;2023-04-27T11:39:22;55654.22;;;-146.31;36.19
2036;BME280;23642;42.658;23.350;2023-04-27T11:42:28;55641.84;;;-146.31;35.72
2036;BME280;23642;42.658;23.350;2023-04-27T12:02:04;55749.25;;;-146.31;36.88
2036;BME280;23642;42.658;23.350;2023-04-27T12:05:45;55718.28;;;-146.31;36.67
2036;BME280;23642;42.658;23.350;2023-04-27T12:08:27;55701.75;;;-146.31;36.44
2036;BME280;23642;42.658;23.350;2023-04-27T12:11:00;55720.34;;;-146.31;36.68
2036;BME280;23642;42.658;23.350;2023-04-27T12:13:31;55716.19;;;-146.31;36.65
2036;BME280;23642;42.658;23.350;2023-04-27T12:16:26;55741.00;;;-146.31;37.29
2036;BME280;23642;42.658;23.350;2023-04-27T12:18:58;55749.25;;;-146.31;37.33
2036;BME280;23642;42.658;23.350;2023-04-27T12:21:28;55730.66;;;-146.31;36.72
2036;BME280;23642;42.658;23.350;2023-04-27T12:24:14;55701.75;;;-146.31;35.84
2036;BME280;23642;42.658;23.350;2023-04-27T12:26:43;55645.97;;;-146.31;35.51
2036;BME280;23642;42.658;23.350;2023-04-27T12:29:58;55652.16;;;-146.31;34.96
2036;BME280;23642;42.658;23.350;2023-04-27T12:32:45;55643.91;;;-146.31;35.50
2036;BME280;23642;42.658;23.350;2023-04-27T12:36:01;55674.88;;;-146.31;35.72
2036;BME280;23642;42.658;23.350;2023-04-27T12:38:56;55645.97;;;-146.31;35.64
2036;BME280;23642;42.658;23.350;2023-04-27T12:41:54;55662.50;;;-146.31;36.01
2036;BME280;23642;42.658;23.350;2023-04-27T12:44:21;55705.88;;;-146.31;36.59
2036;BME280;23642;42.658;23.350;2023-04-27T12:46:48;55718.28;;;-146.31;36.47
2036;BME280;23642;42.658;23.350;2023-04-27T12:49:17;55712.06;;;-146.31;36.79
2036;BME280;23642;42.658;23.350;2023-04-27T12:51:52;55728.59;;;-146.31;36.76
2036;BME280;23642;42.658;23.350;2023-04-27T12:54:28;55745.13;;;-146.31;36.71
2036;BME280;23642;42.658;23.350;2023-04-27T12:57:03;55728.59;;;-146.31;36.97
2036;BME280;23642;42.658;23.350;2023-04-27T12:59:39;55734.78;;;-146.31;36.72
2036;BME280;23642;42.658;23.350;2023-04-27T13:02:08;55707.94;;;-146.31;36.97
2036;BME280;23642;42.658;23.350;2023-04-27T13:04:50;55776.09;;;-146.31;37.04
2036;BME280;23642;42.658;23.350;2023-04-27T13:07:22;55763.72;;;-146.31;37.12
2036;BME280;23642;42.658;23.350;2023-04-27T13:10:30;55755.44;;;-146.31;37.08
2036;BME280;23642;42.658;23.350;2023-04-27T13:13:11;55757.50;;;-146.31;37.03
2036;BME280;23642;42.658;23.350;2023-04-27T13:15:48;55749.25;;;-146.31;36.62
2036;BME280;23642;42.658;23.350;2023-04-27T13:18:15;55747.19;;;-146.31;36.17
2036;BME280;23642;42.658;23.350;2023-04-27T13:21:11;55736.84;;;-146.31;36.36
2036;BME280;23642;42.658;23.350;2023-04-27T13:23:49;55788.50;;;-146.31;36.40
2036;BME280;23642;42.658;23.350;2023-04-27T13:26:42;55741.00;;;-146.31;36.19
2036;BME280;23642;42.658;23.350;2023-04-27T13:29:25;55720.34;;;-146.31;36.15
2036;BME280;23642;42.658;23.350;2023-04-27T13:31:59;55771.97;;;-146.31;36.47
2036;BME280;23642;42.658;23.350;2023-04-27T13:34:29;55782.31;;;-146.31;36.93
2036;BME280;23642;42.658;23.350;2023-04-27T13:37:18;55757.50;;;-146.31;37.16
2036;BME280;23642;42.658;23.350;2023-04-27T13:42:54;55774.03;;;-146.31;37.04
2036;BME280;23642;42.658;23.350;2023-04-27T13:45:34;55759.59;;;-146.31;37.17
2036;BME280;23642;42.658;23.350;2023-04-27T13:48:06;55751.31;;;-146.31;36.64
2036;BME280;23642;42.658;23.350;2023-04-27T13:54:14;55763.72;;;-146.31;37.28
2036;BME280;23642;42.658;23.350;2023-04-27T13:56:45;55749.25;;;-146.31;36.82
2036;BME280;23642;42.658;23.350;2023-04-27T13:59:17;55716.19;;;-146.31;36.77
2036;BME280;23642;42.658;23.350;2023-04-27T14:01:48;55728.59;;;-146.31;36.50
2036;BME280;23642;42.658;23.350;2023-04-27T14:04:20;55726.53;;;-146.31;36.35
2036;BME280;23642;42.658;23.350;2023-04-27T14:06:52;55730.66;;;-146.31;36.51
2036;BME280;23642;42.658;23.350;2023-04-27T14:09:20;55761.66;;;-146.31;36.24
2036;BME280;23642;42.658;23.350;2023-04-27T14:11:58;55784.38;;;-146.31;36.47
2036;BME280;23642;42.658;23.350;2023-04-27T14:15:10;55790.56;;;-146.31;37.22
2036;BME280;23642;42.658;23.350;2023-04-27T14:17:57;55774.03;;;-146.31;36.74
2036;BME280;23642;42.658;23.350;2023-04-27T14:20:30;55763.72;;;-146.31;36.77
2036;BME280;23642;42.658;23.350;2023-04-27T14:23:18;55786.44;;;-146.31;36.54
2036;BME280;23642;42.658;23.350;2023-04-27T14:26:04;55782.31;;;-146.31;37.17
2036;BME280;23642;42.658;23.350;2023-04-27T14:28:33;55771.97;;;-146.31;37.11
2036;BME280;23642;42.658;23.350;2023-04-27T14:31:07;55749.25;;;-146.31;36.00
2036;BME280;23642;42.658;23.350;2023-04-27T14:33:44;55724.47;;;-146.31;35.78
2036;BME280;23642;42.658;23.350;2023-04-27T14:36:12;55763.72;;;-146.31;35.74
2036;BME280;23642;42.658;23.350;2023-04-27T14:38:51;55778.16;;;-146.31;35.41
2036;BME280;23642;42.658;23.350;2023-04-27T14:41:25;55728.59;;;-146.31;34.67
2036;BME280;23642;42.658;23.350;2023-04-27T14:44:11;55687.28;;;-146.31;34.81
2036;BME280;23642;42.658;23.350;2023-04-27T14:47:08;55763.72;;;-146.31;35.75
2036;BME280;23642;42.658;23.350;2023-04-27T14:49:56;55788.50;;;-146.31;35.99
2036;BME280;23642;42.658;23.350;2023-04-27T14:52:49;55796.75;;;-146.31;35.97
2036;BME280;23642;42.658;23.350;2023-04-27T14:55:27;55825.69;;;-146.31;36.51
2036;BME280;23642;42.658;23.350;2023-04-27T14:58:13;55788.50;;;-146.31;34.97
2036;BME280;23642;42.658;23.350;2023-04-27T15:00:47;55763.72;;;-146.31;34.17
2036;BME280;23642;42.658;23.350;2023-04-27T15:04:08;55736.84;;;-146.31;33.97
2036;BME280;23642;42.658;23.350;2023-04-27T15:07:23;55800.91;;;-146.31;35.48
2036;BME280;23642;42.658;23.350;2023-04-27T15:09:58;55809.16;;;-146.31;35.88
2036;BME280;23642;42.658;23.350;2023-04-27T15:12:28;55829.81;;;-146.31;36.22
2036;BME280;23642;42.658;23.350;2023-04-27T15:14:59;55846.34;;;-146.31;36.43
2036;BME280;23642;42.658;23.350;2023-04-27T15:17:29;55821.56;;;-146.31;36.64
2036;BME280;23642;42.658;23.350;2023-04-27T15:20:01;55852.53;;;-146.31;36.77
2036;BME280;23642;42.658;23.350;2023-04-27T15:22:31;55864.94;;;-146.31;37.22
2036;BME280;23642;42.658;23.350;2023-04-27T15:25:00;55864.94;;;-146.31;37.20
2036;BME280;23642;42.658;23.350;2023-04-27T15:27:50;55856.66;;;-146.31;37.12
2036;BME280;23642;42.658;23.350;2023-04-27T15:30:41;55881.44;;;-146.31;37.69
2036;BME280;23642;42.658;23.350;2023-04-27T15:33:09;55869.06;;;-146.31;37.79
2036;BME280;23642;42.658;23.350;2023-04-27T15:35:37;55891.78;;;-146.31;37.81